Time;durP1;ratioP1;P1;durP2;ratioP2;P2;SDS_P1;SDS_P2;PMS_P1;PMS_P2;Temp;Humidity;BMP_temperature;BMP_pressure;BME280_temperature;BME280_humidity;BME280_pressure;Samples;Min_cycle;Max_cycle;Signal;HPM_P1;HPM_P2
2022/05/26 00:01:20;;;;;;;;;0.00;0.00;;;;;18.03;48.50;99733.56;5030316;28;45615;-63
2022/05/26 00:03:47;;;;;;;;;0.00;0.00;;;;;18.03;48.87;99722.03;5028961;28;45445;-64
2022/05/26 00:06:15;;;;;;;;;0.00;0.00;;;;;17.99;48.71;99747.16;5031240;28;45475;-63
2022/05/26 00:08:41;;;;;;;;;0.00;0.00;;;;;17.97;48.82;99728.56;5028209;28;46764;-64
2022/05/26 00:11:14;;;;;;;;;0.00;0.00;;;;;17.95;48.90;99719.81;5024439;28;45304;-64
2022/05/26 00:13:40;;;;;;;;;0.80;0.80;;;;;17.96;48.96;99718.00;5026235;28;45497;-64
2022/05/26 00:16:06;;;;;;;;;0.00;0.00;;;;;17.96;48.89;99715.31;5036449;28;45313;-64
2022/05/26 00:18:32;;;;;;;;;0.00;0.00;;;;;17.93;49.15;99734.22;5024249;28;46318;-63
2022/05/26 00:20:57;;;;;;;;;0.00;0.00;;;;;17.90;49.37;99713.91;5024871;28;45361;-64
2022/05/26 00:23:23;;;;;;;;;0.00;0.00;;;;;17.87;49.08;99711.44;5021941;28;45409;-64
2022/05/26 00:25:48;;;;;;;;;0.00;0.00;;;;;17.86;49.47;99709.72;5027243;28;45367;-64
2022/05/26 00:28:13;;;;;;;;;0.00;0.00;;;;;17.86;49.38;99722.19;5029097;28;45378;-63
2022/05/26 00:30:39;;;;;;;;;2.25;0.00;;;;;17.85;49.47;99731.13;5017456;28;45433;-63
2022/05/26 00:33:07;;;;;;;;;0.00;0.00;;;;;17.82;49.59;99734.84;5023155;28;45538;-63
2022/05/26 00:35:34;;;;;;;;;0.00;0.00;;;;;17.82;49.54;99725.97;5028796;28;45535;-64
2022/05/26 00:38:04;;;;;;;;;2.00;0.00;;;;;17.81;49.28;99732.25;5016850;28;46621;-63
2022/05/26 00:40:31;;;;;;;;;0.00;0.00;;;;;17.80;49.43;99734.06;5035694;28;45421;-63
2022/05/26 00:42:58;;;;;;;;;0.00;0.00;;;;;17.79;49.40;99727.88;5022042;28;45576;-64
2022/05/26 00:45:24;;;;;;;;;0.00;0.00;;;;;17.77;49.57;99724.44;5029052;28;45379;-63
2022/05/26 00:47:50;;;;;;;;;0.40;0.40;;;;;17.74;49.25;99711.31;5024569;28;45443;-63
2022/05/26 00:50:28;;;;;;;;;1.00;0.00;;;;;17.72;49.42;99715.88;5022779;28;45430;-63
2022/05/26 00:52:58;;;;;;;;;0.00;0.00;;;;;17.69;49.56;99716.06;5015997;28;45506;-63
2022/05/26 00:55:28;;;;;;;;;2.00;0.00;;;;;17.68;49.89;99738.34;5015605;28;45394;-63
2022/05/26 00:58:03;;;;;;;;;0.00;0.00;;;;;17.66;49.77;99721.56;5016016;28;46302;-63
2022/05/26 01:00:33;;;;;;;;;2.00;0.60;;;;;17.65;49.93;99724.31;5015841;28;45432;-63
2022/05/26 01:03:14;;;;;;;;;0.20;0.20;;;;;17.62;50.14;99712.00;5016003;28;45427;-63
2022/05/26 01:05:48;;;;;;;;;0.40;0.00;;;;;17.61;50.07;99720.06;5015534;28;45464;-63
2022/05/26 01:08:26;;;;;;;;;1.00;0.00;;;;;17.60;50.08;99723.69;5015584;28;45410;-63
2022/05/26 01:10:53;;;;;;;;;0.00;0.00;;;;;17.66;49.83;99718.91;5016487;28;45360;-63
2022/05/26 01:13:20;;;;;;;;;1.20;0.00;;;;;17.62;49.92;99711.13;5015747;28;45435;-63
2022/05/26 01:15:54;;;;;;;;;2.00;1.00;;;;;17.59;50.20;99717.53;5003758;28;45422;-63
2022/05/26 01:18:36;;;;;;;;;0.60;0.60;;;;;17.57;49.50;99707.91;5014576;28;47332;-63
2022/05/26 01:21:54;;;;;;;;;0.40;0.20;;;;;17.54;50.07;99705.41;5035838;28;45441;-63
2022/05/26 01:25:10;;;;;;;;;0.60;0.60;;;;;17.50;49.95;99718.06;5025546;28;45394;-63
2022/05/26 01:27:44;;;;;;;;;0.00;0.00;;;;;17.47;50.53;99725.38;4993300;28;45427;-64
2022/05/26 01:30:18;;;;;;;;;0.00;0.00;;;;;17.45;50.71;99705.00;5011962;28;45514;-63
2022/05/26 01:32:58;;;;;;;;;0.00;0.00;;;;;17.43;50.46;99725.53;5015340;28;45564;-63
2022/05/26 01:35:33;;;;;;;;;0.20;0.20;;;;;17.42;50.54;99731.00;5015568;28;45304;-63
2022/05/26 01:38:19;;;;;;;;;0.00;0.00;;;;;17.40;50.30;99716.91;5028960;28;45485;-63
2022/05/26 01:41:03;;;;;;;;;0.00;0.00;;;;;17.40;50.73;99732.88;5014804;28;46684;-63
2022/05/26 01:43:42;;;;;;;;;0.00;0.00;;;;;17.39;50.38;99731.16;5015117;28;45323;-63
2022/05/26 01:46:20;;;;;;;;;0.00;0.00;;;;;17.39;50.70;99731.16;5034240;28;45553;-63
2022/05/26 01:48:51;;;;;;;;;0.75;0.00;;;;;17.38;50.81;99737.44;5034960;28;45332;-63
2022/05/26 01:51:26;;;;;;;;;1.00;1.00;;;;;17.37;50.68;99733.91;5034568;28;46186;-63
2022/05/26 01:54:07;;;;;;;;;0.00;0.00;;;;;17.36;50.77;99731.34;5034809;28;45473;-63
2022/05/26 01:56:57;;;;;;;;;0.40;0.00;;;;;17.38;50.29;99713.47;5034992;28;45429;-63
2022/05/26 01:59:28;;;;;;;;;1.00;1.00;;;;;17.38;50.35;99729.44;5034821;28;45521;-63
2022/05/26 02:02:18;;;;;;;;;0.00;0.00;;;;;17.37;50.44;99723.25;5017011;28;48184;-63
2022/05/26 02:04:58;;;;;;;;;1.00;1.00;;;;;17.35;50.43;99724.28;5016620;28;46061;-64
2022/05/26 02:07:35;;;;;;;;;0.00;0.00;;;;;17.32;50.59;99722.66;5034747;28;45386;-63
2022/05/26 02:10:07;;;;;;;;;0.00;0.00;;;;;17.30;50.69;99724.53;5032631;28;45504;-63
2022/05/26 02:12:39;;;;;;;;;0.00;0.00;;;;;17.28;50.54;99715.78;5014730;28;46550;-63
2022/05/26 02:15:28;;;;;;;;;2.00;0.00;;;;;17.26;50.79;99712.34;5000243;28;45817;-63
2022/05/26 02:18:05;;;;;;;;;0.40;0.40;;;;;17.24;50.92;99710.75;5010959;28;45398;-64
2022/05/26 02:20:52;;;;;;;;;1.00;1.00;;;;;17.21;51.07;99711.78;5014635;28;45426;-63
2022/05/26 02:23:57;;;;;;;;;0.80;0.00;;;;;17.21;51.08;99718.91;5014097;28;46212;-63
2022/05/26 02:26:23;;;;;;;;;1.00;1.00;;;;;17.20;50.96;99711.84;5014426;28;45446;-64
2022/05/26 02:31:34;;;;;;;;;0.40;0.00;;;;;17.21;51.38;99706.44;5014017;28;45474;-64
2022/05/26 02:34:01;;;;;;;;;0.00;0.00;;;;;17.17;51.48;99704.03;5026507;28;45610;-64
2022/05/26 02:36:33;;;;;;;;;1.80;1.00;;;;;17.12;51.71;99709.63;5031499;28;45365;-63
2022/05/26 02:38:59;;;;;;;;;0.00;0.00;;;;;17.06;51.17;99705.53;5017643;28;45520;-64
2022/05/26 02:41:25;;;;;;;;;1.00;1.00;;;;;17.04;51.25;99709.22;5036484;28;45479;-63
2022/05/26 02:43:51;;;;;;;;;1.00;1.00;;;;;17.02;51.40;99709.31;5019669;28;45820;-64
2022/05/26 02:46:21;;;;;;;;;1.00;1.00;;;;;16.99;51.94;99711.28;5018330;28;45454;-63
2022/05/26 02:48:47;;;;;;;;;1.00;1.00;;;;;16.95;52.31;99715.06;5018038;28;45443;-63
2022/05/26 02:51:28;;;;;;;;;0.75;0.75;;;;;16.90;51.88;99710.00;5018114;28;45467;-63
2022/05/26 02:53:56;;;;;;;;;0.00;0.00;;;;;16.88;51.50;99714.56;5017246;28;46034;-63
2022/05/26 02:56:55;;;;;;;;;1.00;1.00;;;;;16.87;51.68;99719.97;5017886;28;45376;-63
2022/05/26 02:59:24;;;;;;;;;1.40;1.00;;;;;16.85;52.01;99719.19;5018172;28;45324;-63
2022/05/26 03:01:57;;;;;;;;;0.50;0.50;;;;;16.83;51.77;99729.94;4999748;28;45375;-63
2022/05/26 03:04:30;;;;;;;;;1.00;1.00;;;;;16.80;52.11;99722.09;5017954;28;45461;-63
2022/05/26 03:07:00;;;;;;;;;0.80;0.80;;;;;16.77;52.18;99719.59;5017501;28;45391;-63
2022/05/26 03:09:26;;;;;;;;;0.80;0.80;;;;;16.78;52.56;99726.66;5017652;28;45396;-63
2022/05/26 03:11:57;;;;;;;;;1.00;1.00;;;;;16.80;52.38;99735.41;5018236;28;45757;-63
2022/05/26 03:14:25;;;;;;;;;1.40;1.00;;;;;16.81;52.66;99723.81;5017550;28;46401;-63
2022/05/26 03:16:51;;;;;;;;;1.00;1.00;;;;;16.82;52.79;99725.53;5030702;28;45519;-63
2022/05/26 03:19:17;;;;;;;;;0.20;0.20;;;;;16.81;53.00;99731.81;5017688;28;45421;-63
2022/05/26 03:21:42;;;;;;;;;1.00;1.00;;;;;16.77;53.04;99737.38;5021612;28;45345;-63
2022/05/26 03:24:09;;;;;;;;;1.75;1.75;;;;;16.69;52.94;99729.84;5025344;28;45405;-63
2022/05/26 03:26:35;;;;;;;;;0.80;0.80;;;;;16.62;53.66;99731.94;5017289;28;45442;-63
2022/05/26 03:29:00;;;;;;;;;0.20;0.20;;;;;16.56;53.53;99734.94;5017252;28;45356;-63
2022/05/26 03:31:26;;;;;;;;;1.00;1.00;;;;;16.48;54.70;99729.16;5017120;28;45537;-63
2022/05/26 03:42:06;;;;;;;;;1.25;1.25;;;;;16.12;54.26;99745.31;5026315;28;45383;-63
2022/05/26 03:44:33;;;;;;;;;1.40;1.00;;;;;16.07;54.85;99749.16;5030086;28;46314;-63
2022/05/26 03:46:59;;;;;;;;;2.60;1.20;;;;;16.02;54.82;99744.94;5015415;28;45227;-63
2022/05/26 03:49:24;;;;;;;;;1.20;1.00;;;;;15.99;55.24;99742.44;5021670;28;45362;-63
2022/05/26 03:51:50;;;;;;;;;0.75;0.75;;;;;15.96;55.40;99741.72;5022794;28;45503;-63
2022/05/26 03:54:15;;;;;;;;;3.50;0.75;;;;;15.92;54.50;99749.00;5034235;28;45473;-63
2022/05/26 03:56:41;;;;;;;;;0.00;0.00;;;;;15.89;54.72;99741.22;5035407;28;45390;-63
2022/05/26 03:59:06;;;;;;;;;0.75;0.75;;;;;15.86;55.83;99748.47;5035548;28;45358;-63
2022/05/26 04:01:32;;;;;;;;;0.75;0.75;;;;;15.83;56.02;99756.59;5035287;28;45409;-63
2022/05/26 04:03:57;;;;;;;;;0.75;0.75;;;;;15.80;56.04;99756.75;5016947;28;46461;-63
2022/05/26 04:06:23;;;;;;;;;1.50;1.50;;;;;15.78;55.69;99753.31;5015315;28;45422;-63
2022/05/26 04:08:49;;;;;;;;;0.75;0.75;;;;;15.79;55.90;99757.69;5015187;28;45497;-63
2022/05/26 04:11:14;;;;;;;;;1.00;0.75;;;;;15.80;56.31;99759.41;5015844;28;45553;-63
2022/05/26 04:13:40;;;;;;;;;1.25;1.25;;;;;15.80;56.13;99759.41;5020235;28;45505;-63
2022/05/26 04:16:06;;;;;;;;;0.75;0.75;;;;;15.78;56.37;99754.19;5035042;28;45363;-63
2022/05/26 04:18:32;;;;;;;;;2.75;0.75;;;;;15.76;55.56;99756.03;5016205;28;45439;-63
2022/05/26 04:21:10;;;;;;;;;0.00;0.00;;;;;15.74;56.44;99773.91;5015122;28;45454;-63
2022/05/26 04:23:36;;;;;;;;;0.75;0.25;;;;;15.74;56.69;99776.56;5015062;28;46471;-63
2022/05/26 04:26:03;;;;;;;;;2.00;2.00;;;;;15.76;56.47;99782.63;5027695;28;45461;-63
2022/05/26 04:28:28;;;;;;;;;0.80;0.80;;;;;15.76;56.28;99784.44;5028235;28;45455;-63
2022/05/26 04:30:55;;;;;;;;;1.00;1.00;;;;;15.75;57.24;99788.91;5015113;28;45568;-63
2022/05/26 04:33:20;;;;;;;;;0.80;0.80;;;;;15.73;57.22;99789.94;5034629;28;46346;-49
2022/05/26 04:35:46;;;;;;;;;0.50;0.50;;;;;15.76;56.40;99800.38;5034628;28;45356;-54
2022/05/26 04:38:11;;;;;;;;;2.00;2.00;;;;;15.80;56.50;99797.50;5034597;28;45390;-50
2022/05/26 04:40:39;;;;;;;;;1.00;1.00;;;;;15.82;56.73;99802.75;5033351;28;1253412;-58
2022/05/26 04:43:06;;;;;;;;;1.80;1.80;;;;;15.84;56.92;99804.38;5017042;28;45476;-51
2022/05/26 04:45:32;;;;;;;;;1.00;1.00;;;;;15.91;56.79;99797.84;5016046;28;45389;-53
2022/05/26 04:47:57;;;;;;;;;0.75;0.75;;;;;16.04;56.55;99795.41;5019559;28;45497;-52
2022/05/26 04:50:23;;;;;;;;;1.75;1.75;;;;;16.13;56.42;99796.72;5034882;28;45348;-50
2022/05/26 04:52:48;;;;;;;;;0.75;0.75;;;;;16.20;56.27;99804.31;5015530;28;45462;-53
2022/05/26 04:55:15;;;;;;;;;0.75;0.75;;;;;16.28;56.16;99804.75;5015323;28;45374;-54
2022/05/26 04:57:41;;;;;;;;;0.75;0.75;;;;;16.35;55.83;99811.47;5015038;28;45437;-52
2022/05/26 05:00:10;;;;;;;;;1.60;1.20;;;;;16.42;55.36;99810.19;5015630;28;46210;-51
2022/05/26 05:02:36;;;;;;;;;2.00;0.60;;;;;16.50;55.64;99809.81;5015950;28;45416;-52
2022/05/26 05:05:02;;;;;;;;;2.25;1.25;;;;;16.55;55.80;99815.75;5015924;28;45324;-52
2022/05/26 05:07:28;;;;;;;;;2.00;1.75;;;;;16.60;55.37;99816.34;5015650;28;45552;-54
2022/05/26 05:09:53;;;;;;;;;2.25;2.25;;;;;16.62;55.47;99822.44;5015770;28;46187;-53
2022/05/26 05:12:21;;;;;;;;;1.00;1.00;;;;;16.65;55.43;99819.66;4997585;28;45410;-51
2022/05/26 05:14:49;;;;;;;;;2.00;2.00;;;;;16.69;55.19;99825.69;5016324;28;45468;-53
2022/05/26 05:17:16;;;;;;;;;1.00;1.00;;;;;16.69;55.77;99825.69;5027730;28;45519;-53
2022/05/26 05:19:42;;;;;;;;;2.20;2.00;;;;;16.67;55.30;99819.59;5014838;28;45464;-53
2022/05/26 05:22:16;;;;;;;;;2.00;2.00;;;;;16.67;55.33;99830.22;5015404;28;45295;-52
2022/05/26 05:25:06;;;;;;;;;2.00;2.00;;;;;16.71;55.31;99827.34;5015170;28;45552;-51
2022/05/26 05:27:39;;;;;;;;;0.75;0.75;;;;;16.72;55.44;99834.38;5022020;28;45509;-53
2022/05/26 05:30:10;;;;;;;;;1.00;1.00;;;;;16.70;55.40;99833.59;5027168;28;47287;-55
2022/05/26 05:32:45;;;;;;;;;2.00;2.00;;;;;16.67;55.75;99831.09;5033680;28;45368;-53
2022/05/26 05:35:14;;;;;;;;;3.50;2.00;;;;;16.66;55.80;99833.84;5035435;28;45361;-56
2022/05/26 05:37:40;;;;;;;;;2.00;2.00;;;;;16.62;56.16;99832.25;5034832;28;45528;-56
2022/05/26 05:40:06;;;;;;;;;2.25;2.00;;;;;16.55;56.28;99831.72;5018367;28;46056;-56
2022/05/26 05:42:32;;;;;;;;;0.60;0.60;;;;;16.49;56.26;99840.03;5013933;28;45576;-56
2022/05/26 05:44:58;;;;;;;;;0.75;0.75;;;;;16.45;56.56;99826.94;5006948;28;45400;-57
2022/05/26 05:47:23;;;;;;;;;1.00;1.00;;;;;16.49;56.27;99826.72;4995144;28;45417;-56
2022/05/26 05:49:49;;;;;;;;;1.25;1.25;;;;;16.56;56.25;99840.56;4995299;28;45455;-56
2022/05/26 05:52:19;;;;;;;;;2.00;2.00;;;;;16.60;56.43;99840.31;4995081;28;45625;-56
2022/05/26 05:54:44;;;;;;;;;2.00;2.00;;;;;16.66;56.25;99844.47;4994987;28;45498;-56
2022/05/26 05:57:10;;;;;;;;;1.75;1.00;;;;;16.66;56.17;99845.34;4995325;28;45336;-57
2022/05/26 05:59:35;;;;;;;;;3.00;1.50;;;;;16.68;55.98;99847.94;4994994;28;46585;-56
2022/05/26 06:02:02;;;;;;;;;2.00;2.00;;;;;16.73;56.18;99851.22;4997146;28;45469;-57
2022/05/26 06:04:27;;;;;;;;;1.00;1.00;;;;;16.79;56.30;99850.88;5004474;28;45383;-57
2022/05/26 06:06:53;;;;;;;;;1.75;1.75;;;;;16.87;55.71;99850.47;5005378;28;45480;-56
2022/05/26 06:09:20;;;;;;;;;2.00;2.00;;;;;16.94;56.02;99851.84;4994048;28;46742;-56
2022/05/26 06:11:47;;;;;;;;;2.00;2.00;;;;;17.02;55.92;99849.63;5005059;28;45387;-62
2022/05/26 06:14:12;;;;;;;;;1.20;1.00;;;;;17.07;55.41;99852.91;4989989;28;45340;-62
2022/05/26 06:16:38;;;;;;;;;2.25;2.25;;;;;17.10;55.48;99853.56;5003415;28;45315;-62
2022/05/26 06:19:04;;;;;;;;;2.00;2.00;;;;;17.16;55.60;99868.38;5013819;28;45473;-62
2022/05/26 06:21:31;;;;;;;;;3.25;2.00;;;;;17.19;55.37;99862.03;4998088;28;45449;-62
2022/05/26 06:23:57;;;;;;;;;0.40;0.40;;;;;17.22;55.28;99867.19;5003031;28;45488;-62
2022/05/26 06:26:26;;;;;;;;;1.50;1.50;;;;;17.27;55.48;99870.44;4998273;28;45398;-62
2022/05/26 06:31:37;;;;;;;;;2.40;2.40;;;;;17.28;55.73;99878.34;4993929;28;45411;-62
2022/05/26 06:39:12;;;;;;;;;4.00;2.50;;;;;17.29;55.28;99890.72;5012641;28;45479;-62
2022/05/26 06:44:22;;;;;;;;;2.00;2.00;;;;;17.35;55.21;99885.06;5013761;28;45402;-62
2022/05/26 06:46:47;;;;;;;;;1.00;1.00;;;;;17.40;55.25;99890.16;5011089;28;45438;-62
2022/05/26 06:49:14;;;;;;;;;1.00;1.00;;;;;17.45;54.97;99886.25;5024682;28;46456;-62
2022/05/26 06:51:41;;;;;;;;;1.00;1.00;;;;;17.51;54.62;99889.53;5030237;28;45364;-61
2022/05/26 06:54:07;;;;;;;;;1.00;1.00;;;;;17.55;54.37;99889.28;5032569;28;45504;-62
2022/05/26 06:56:33;;;;;;;;;1.00;1.00;;;;;17.60;54.71;99889.88;5033095;28;45397;-62
2022/05/26 06:58:58;;;;;;;;;1.00;1.00;;;;;17.64;54.48;99888.78;5032890;28;46273;-62
2022/05/26 07:01:24;;;;;;;;;1.00;1.00;;;;;17.70;54.10;99891.13;5022848;28;45487;-61
2022/05/26 07:03:49;;;;;;;;;1.00;1.00;;;;;17.74;53.82;99884.66;5012402;28;45730;-61
2022/05/26 07:06:21;;;;;;;;;1.00;1.00;;;;;17.79;53.13;99881.72;5012895;28;45446;-62
2022/05/26 07:08:48;;;;;;;;;1.00;1.00;;;;;17.84;53.12;99884.13;5012701;28;45467;-62
2022/05/26 07:11:14;;;;;;;;;1.00;1.00;;;;;17.88;53.27;99877.69;5014748;28;45388;-61
2022/05/26 07:13:40;;;;;;;;;1.00;1.00;;;;;17.97;52.90;99877.13;5012715;28;45400;-62
2022/05/26 07:16:07;;;;;;;;;1.00;1.00;;;;;18.04;51.84;99875.84;5024413;28;45402;-61
2022/05/26 07:18:33;;;;;;;;;1.00;1.00;;;;;18.09;52.06;99882.63;5021372;28;45473;-61
2022/05/26 07:20:59;;;;;;;;;0.75;0.75;;;;;18.14;52.01;99882.34;5021605;28;45467;-61
2022/05/26 07:23:24;;;;;;;;;1.00;1.00;;;;;18.20;51.80;99873.97;5016397;28;45534;-62
2022/05/26 07:25:49;;;;;;;;;1.00;1.00;;;;;18.30;52.04;99880.47;5016084;28;45598;-62
2022/05/26 07:28:15;;;;;;;;;1.00;1.00;;;;;18.35;51.93;99874.88;5015906;28;45343;-62
2022/05/26 07:30:41;;;;;;;;;1.50;1.25;;;;;18.40;51.43;99880.81;5016054;28;45777;-62
2022/05/26 07:33:08;;;;;;;;;2.00;1.00;;;;;18.43;51.04;99873.44;5015586;28;45423;-62
2022/05/26 07:35:34;;;;;;;;;1.00;1.00;;;;;18.45;51.01;99876.03;5015854;28;45430;-61
2022/05/26 07:43:31;;;;;;;;;0.00;0.00;;;;;18.41;50.84;99883.38;5025939;28;45393;-61
2022/05/26 07:45:57;;;;;;;;;1.00;1.00;;;;;18.42;50.53;99882.44;5032163;28;45394;-62
2022/05/26 07:48:22;;;;;;;;;2.00;0.00;;;;;18.44;50.57;99877.84;5018764;28;46459;-62
2022/05/26 07:50:47;;;;;;;;;1.00;1.00;;;;;18.47;50.14;99880.31;5018676;28;45390;-61
2022/05/26 07:53:13;;;;;;;;;0.00;0.00;;;;;18.48;50.41;99886.53;5025819;28;45304;-62
2022/05/26 07:55:42;;;;;;;;;1.00;1.00;;;;;18.48;50.57;99891.88;5014878;28;45332;-61
2022/05/26 07:58:09;;;;;;;;;1.20;1.00;;;;;18.50;50.54;99897.97;5015415;28;46640;-61
2022/05/26 08:00:34;;;;;;;;;1.40;1.40;;;;;18.49;50.30;99891.78;4997711;28;45680;-61
2022/05/26 08:03:00;;;;;;;;;1.00;1.00;;;;;18.52;50.38;99888.06;5014914;28;45453;-62
2022/05/26 08:05:25;;;;;;;;;1.00;1.00;;;;;18.55;50.81;99893.22;5015969;28;45466;-61
2022/05/26 08:07:50;;;;;;;;;0.75;0.75;;;;;18.58;50.41;99892.19;5015746;28;45451;-62
2022/05/26 08:10:16;;;;;;;;;2.00;1.00;;;;;18.57;50.57;99893.13;5015906;28;45385;-59
2022/05/26 08:12:41;;;;;;;;;1.00;1.00;;;;;18.58;50.51;99890.38;5015524;28;45441;-61
2022/05/26 08:15:07;;;;;;;;;1.00;1.00;;;;;18.58;50.61;99879.69;5018670;28;45530;-61
2022/05/26 08:17:33;;;;;;;;;2.00;1.00;;;;;18.63;50.88;99888.28;5023428;28;46608;-61
2022/05/26 08:19:58;;;;;;;;;1.00;1.00;;;;;18.71;50.35;99886.03;4997994;28;45409;-61
2022/05/26 08:22:23;;;;;;;;;0.50;0.50;;;;;18.76;50.30;99880.41;5015440;28;45419;-61
2022/05/26 08:24:54;;;;;;;;;2.00;2.00;;;;;18.82;50.61;99885.38;5013845;28;45399;-61
2022/05/26 08:27:20;;;;;;;;;1.40;1.00;;;;;18.91;50.64;99883.94;5014914;28;47022;-61
2022/05/26 08:29:46;;;;;;;;;1.80;1.40;;;;;18.97;49.46;99889.75;4997368;28;45467;-61
2022/05/26 08:32:13;;;;;;;;;1.00;1.00;;;;;19.03;50.15;99891.19;5013969;28;45711;-61
2022/05/26 08:34:39;;;;;;;;;0.40;0.40;;;;;19.10;49.49;99887.19;5014116;28;45418;-61
2022/05/26 08:37:04;;;;;;;;;1.00;1.00;;;;;19.17;49.93;99883.16;5013799;28;45481;-61
2022/05/26 08:39:32;;;;;;;;;1.00;1.00;;;;;19.23;49.67;99885.47;5012581;28;45402;-61
2022/05/26 08:41:58;;;;;;;;;1.20;1.20;;;;;19.26;49.12;99890.63;5023189;28;45722;-61
2022/05/26 08:44:36;;;;;;;;;1.75;1.75;;;;;19.32;49.47;99900.03;5029559;28;45462;-61
2022/05/26 08:47:07;;;;;;;;;1.40;1.00;;;;;19.33;49.33;99891.06;5013379;28;45430;-61
2022/05/26 08:49:55;;;;;;;;;1.00;0.00;;;;;19.38;49.64;99895.19;5014352;28;45477;-61
2022/05/26 08:52:41;;;;;;;;;1.00;1.00;;;;;19.47;49.12;99891.03;5031360;28;45524;-62
2022/05/26 08:55:23;;;;;;;;;2.00;2.00;;;;;19.59;48.39;99890.31;5034672;28;45374;-61
2022/05/26 08:57:54;;;;;;;;;3.20;2.00;;;;;19.63;48.01;99888.25;5034405;28;45459;-61
2022/05/26 09:00:23;;;;;;;;;1.00;1.00;;;;;19.66;48.21;99899.63;5034711;28;45394;-62
2022/05/26 09:02:55;;;;;;;;;2.00;1.00;;;;;19.69;48.94;99902.09;5034788;28;45372;-61
2022/05/26 09:05:21;;;;;;;;;0.80;0.80;;;;;19.74;48.45;99899.13;5016656;28;45312;-62
2022/05/26 09:13:38;;;;;;;;;1.00;1.00;;;;;19.89;47.28;99902.63;5014589;28;45390;-61
2022/05/26 09:16:06;;;;;;;;;1.00;1.00;;;;;19.90;47.39;99896.31;5025310;28;45349;-61
2022/05/26 09:18:31;;;;;;;;;1.20;1.20;;;;;19.93;47.65;99886.28;5013759;28;45636;-61
2022/05/26 09:21:22;;;;;;;;;1.25;1.00;;;;;19.99;47.57;99893.00;5014686;28;45370;-61
2022/05/26 09:23:48;;;;;;;;;1.20;1.20;;;;;20.02;47.78;99893.69;5012939;28;45398;-62
2022/05/26 09:26:19;;;;;;;;;2.00;2.00;;;;;20.07;47.19;99886.22;5029200;28;45618;-62
2022/05/26 09:28:53;;;;;;;;;2.00;2.00;;;;;20.13;47.38;99895.63;5034304;28;46596;-61
2022/05/26 09:31:34;;;;;;;;;2.00;2.00;;;;;20.17;47.52;99884.63;5034071;28;45327;-62
2022/05/26 09:34:05;;;;;;;;;2.00;2.00;;;;;20.26;47.97;99888.50;5033832;28;45441;-61
2022/05/26 09:36:36;;;;;;;;;1.20;1.20;;;;;20.35;47.97;99890.53;5016327;28;45445;-62
2022/05/26 09:39:03;;;;;;;;;1.00;1.00;;;;;20.41;47.46;99890.19;5033184;28;45324;-62
2022/05/26 09:41:37;;;;;;;;;0.80;0.80;;;;;20.45;47.27;99882.75;5028521;28;45530;-62
2022/05/26 09:44:02;;;;;;;;;1.00;1.00;;;;;20.54;47.10;99876.78;5013508;28;45307;-62
2022/05/26 09:46:28;;;;;;;;;2.00;2.00;;;;;20.63;47.15;99875.28;5013919;28;45570;-62
2022/05/26 09:49:07;;;;;;;;;0.00;0.00;;;;;20.69;47.34;99881.09;5014392;28;45435;-62
2022/05/26 09:51:45;;;;;;;;;1.60;1.60;;;;;20.77;46.59;99888.59;5032976;28;45474;-62
2022/05/26 09:54:25;;;;;;;;;1.00;1.00;;;;;20.87;46.86;99886.97;5019398;28;45373;-61
2022/05/26 09:56:51;;;;;;;;;2.00;2.00;;;;;20.94;46.79;99887.41;5021792;28;45509;-62
2022/05/26 09:59:24;;;;;;;;;0.00;0.00;;;;;20.98;46.37;99888.88;5016017;28;45586;-62
2022/05/26 10:01:52;;;;;;;;;1.80;1.80;;;;;21.00;46.27;99882.47;5008329;28;45645;-62
2022/05/26 10:04:51;;;;;;;;;2.80;2.20;;;;;21.06;46.55;99881.19;5024877;28;45557;-64
2022/05/26 10:07:28;;;;;;;;;1.60;1.60;;;;;21.10;45.55;99891.59;5027251;28;45587;-61
2022/05/26 10:10:21;;;;;;;;;1.00;1.00;;;;;21.14;46.13;99879.66;5031689;28;45590;-61
2022/05/26 10:13:08;;;;;;;;;2.00;2.00;;;;;21.18;46.04;99873.09;5025410;28;45391;-62
2022/05/26 10:16:01;;;;;;;;;2.00;2.00;;;;;21.30;45.47;99881.25;5029600;28;45374;-62
2022/05/26 10:18:35;;;;;;;;;1.00;1.00;;;;;21.37;45.67;99895.97;5027349;28;45349;-62
2022/05/26 10:21:27;;;;;;;;;2.80;2.00;;;;;21.43;45.29;99895.53;5026749;28;46151;-62
2022/05/26 10:24:38;;;;;;;;;4.00;1.00;;;;;21.50;45.76;99886.03;5028711;28;45465;-62
2022/05/26 10:27:27;;;;;;;;;2.00;2.00;;;;;21.62;44.56;99885.13;5030936;28;45375;-62
2022/05/26 10:30:20;;;;;;;;;1.00;1.00;;;;;21.64;45.13;99874.28;5022846;28;45512;-62
2022/05/26 10:33:04;;;;;;;;;18.75;18.75;;;;;21.64;44.36;99879.66;5026404;28;45488;-62
2022/05/26 10:36:12;;;;;;;;;2.40;1.60;;;;;21.71;44.77;99871.06;5032474;28;45415;-62
2022/05/26 10:38:38;;;;;;;;;1.80;1.80;;;;;21.80;44.64;99870.34;5025745;28;45465;-62
2022/05/26 10:41:18;;;;;;;;;2.00;2.00;;;;;21.90;44.42;99866.03;5020443;28;45580;-62
2022/05/26 10:43:49;;;;;;;;;3.20;1.40;;;;;21.90;44.29;99847.25;5032266;28;45655;-62
2022/05/26 10:46:18;;;;;;;;;4.00;2.60;;;;;21.99;43.65;99861.78;5025341;28;45438;-62
2022/05/26 10:49:04;;;;;;;;;2.00;2.00;;;;;22.05;43.57;99841.72;5026965;28;45452;-62
2022/05/26 10:51:39;;;;;;;;;3.00;3.00;;;;;22.06;43.40;99856.84;5028627;28;45423;-62
2022/05/26 10:54:28;;;;;;;;;2.00;2.00;;;;;22.04;43.76;99858.78;5022954;28;46514;-62
2022/05/26 10:56:58;;;;;;;;;2.00;2.00;;;;;22.03;43.42;99854.41;5023623;28;45550;-62
2022/05/26 10:59:53;;;;;;;;;1.60;1.60;;;;;22.05;43.98;99845.25;5033664;28;45468;-62
2022/05/26 11:02:24;;;;;;;;;2.00;2.00;;;;;22.13;43.59;99847.34;5032228;28;45570;-62
2022/05/26 11:05:04;;;;;;;;;1.20;1.20;;;;;22.20;43.12;99845.91;5033541;28;45444;-62
2022/05/26 11:07:35;;;;;;;;;1.60;1.60;;;;;22.27;43.34;99836.44;5034617;28;45394;-62
2022/05/26 11:10:06;;;;;;;;;2.00;2.00;;;;;22.34;43.66;99821.53;5021313;28;45521;-62
2022/05/26 11:12:39;;;;;;;;;0.40;0.40;;;;;22.47;43.49;99837.53;5007160;28;45399;-62
2022/05/26 11:18:05;;;;;;;;;1.80;1.00;;;;;22.58;42.91;99822.31;5029194;28;45343;-62
2022/05/26 11:20:37;;;;;;;;;1.20;1.20;;;;;22.64;42.67;99829.03;5024909;28;45465;-62
2022/05/26 11:23:03;;;;;;;;;3.00;1.40;;;;;22.70;42.28;99838.44;5026697;28;45480;-62
2022/05/26 11:25:43;;;;;;;;;2.00;2.00;;;;;22.78;42.27;99828.00;5033776;28;45741;-62
2022/05/26 11:28:15;;;;;;;;;2.60;2.60;;;;;22.74;41.93;99818.41;5028581;28;45592;-62
2022/05/26 11:36:28;;;;;;;;;1.00;1.00;;;;;22.84;41.40;99817.59;5029289;28;45805;-62
2022/05/26 11:38:54;;;;;;;;;1.60;1.60;;;;;22.81;42.06;99807.06;5027679;28;45410;-62
2022/05/26 11:41:45;;;;;;;;;1.00;1.00;;;;;22.79;42.12;99798.28;5027238;28;45488;-62
2022/05/26 11:44:11;;;;;;;;;1.00;1.00;;;;;22.89;41.84;99791.19;4994157;28;45616;-62
2022/05/26 11:46:46;;;;;;;;;2.40;2.00;;;;;22.96;41.90;99803.16;5009170;28;46223;-62
2022/05/26 11:49:43;;;;;;;;;3.00;3.00;;;;;23.02;41.79;99807.19;4995209;28;45665;-62
2022/05/26 11:52:25;;;;;;;;;2.00;2.00;;;;;23.02;41.77;99788.38;5002585;28;45535;-62
2022/05/26 11:54:58;;;;;;;;;2.00;2.00;;;;;23.10;41.41;99788.63;5012070;28;45719;-62
2022/05/26 11:57:37;;;;;;;;;3.60;2.40;;;;;23.13;41.68;99791.03;5014135;28;45750;-62
2022/05/26 12:00:14;;;;;;;;;0.00;0.00;;;;;23.20;41.31;99788.72;5004947;28;45423;-62
2022/05/26 12:02:41;;;;;;;;;1.00;1.00;;;;;23.27;41.33;99780.03;4997624;28;45458;-62
2022/05/26 12:05:30;;;;;;;;;2.60;1.80;;;;;23.40;40.60;99777.16;5010487;28;45521;-62
2022/05/26 12:07:57;;;;;;;;;1.00;1.00;;;;;23.48;40.88;99776.53;4995111;28;45509;-62
2022/05/26 12:10:28;;;;;;;;;1.00;1.00;;;;;23.50;41.22;99775.41;5010065;28;45545;-61
2022/05/26 12:13:27;;;;;;;;;1.80;1.00;;;;;23.57;40.16;99773.97;5009722;28;45472;-62
2022/05/26 12:16:14;;;;;;;;;2.80;2.60;;;;;23.63;41.19;99751.91;5015188;28;45442;-62
2022/05/26 12:18:49;;;;;;;;;1.80;1.80;;;;;23.75;40.75;99757.25;5005682;28;45470;-62
2022/05/26 12:21:19;;;;;;;;;1.00;1.00;;;;;23.83;39.91;99742.13;5008356;28;45452;-61
2022/05/26 12:23:44;;;;;;;;;0.20;0.20;;;;;23.86;40.25;99754.50;5011220;28;45509;-61
2022/05/26 12:26:33;;;;;;;;;1.00;1.00;;;;;23.84;39.98;99740.31;5007292;28;45318;-61
2022/05/26 12:29:35;;;;;;;;;0.40;0.00;;;;;23.85;39.84;99745.56;5007353;28;45548;-62
2022/05/26 12:32:19;;;;;;;;;0.60;0.60;;;;;23.83;40.57;99739.44;5007310;28;45370;-61
2022/05/26 12:35:14;;;;;;;;;1.40;1.40;;;;;23.90;40.61;99731.72;5005075;28;45508;-62
2022/05/26 12:38:06;;;;;;;;;2.80;2.00;;;;;23.98;40.08;99740.84;5005442;28;45438;-62